ZIG2GW KJFK-LSZH
Flight info
| Callsign | ZIG2GW |
|---|---|
| Flight time | N/A |
| Altitude | 37000 |
| Route | BETTE DCT ACK DCT BRADD N319A ELSIR/M084F390 DCT 50N050W 52N040W 53N030W 53N020W DCT LIMRI DCT XETBO DCT ARKIL/N0480F390 DCT LIZAD DCT JSY DCT ARSUK DCT RESMI DCT TEPRI DCT POGZI DCT GELTA DCT MANAG DCT PEVIT DCT BLM |
| Aircraft | A359/H-SDE2E3GHIJ3J4J5LM1ORWXY/LB1D1 |
Departure
| Time | 2026-05-09 13:23 |
|---|---|
| Airport | John F. Kennedy International Airport (KJFK) |
Arrival
| Time | N/A |
|---|---|
| Airport | Zürich Airport (LSZH) |
| Time | Latitude | Longitude | Altitude | Speed | Heading |
|---|---|---|---|---|---|
| 2026-05-09 12:52 | 40.64175 | -73.79313 | 27 ft | 0 kts | 108° |
| 2026-05-09 13:08 | 40.64178 | -73.79324 | 26 ft | 2 kts | 108° |
| 2026-05-09 13:08 | 40.64186 | -73.79353 | 27 ft | 4 kts | 117° |
| 2026-05-09 13:08 | 40.64201 | -73.79382 | 25 ft | 4 kts | 135° |
| 2026-05-09 13:09 | 40.64221 | -73.79403 | 25 ft | 3 kts | 151° |
| 2026-05-09 13:09 | 40.64225 | -73.79406 | 25 ft | 0 kts | 152° |
| 2026-05-09 13:09 | 40.64241 | -73.79414 | 26 ft | 3 kts | 187° |
| 2026-05-09 13:10 | 40.64252 | -73.79411 | 25 ft | 0 kts | 210° |
| 2026-05-09 13:12 | 40.64250 | -73.79413 | 25 ft | 3 kts | 210° |
| 2026-05-09 13:12 | 40.64215 | -73.79454 | 26 ft | 7 kts | 237° |
| 2026-05-09 13:12 | 40.64194 | -73.79523 | 27 ft | 9 kts | 249° |
| 2026-05-09 13:13 | 40.64166 | -73.79594 | 27 ft | 8 kts | 218° |
| 2026-05-09 13:13 | 40.64113 | -73.79609 | 27 ft | 8 kts | 175° |
| 2026-05-09 13:13 | 40.64029 | -73.79567 | 27 ft | 16 kts | 147° |
| 2026-05-09 13:13 | 40.63958 | -73.79450 | 27 ft | 17 kts | 121° |
| 2026-05-09 13:14 | 40.63898 | -73.79319 | 26 ft | 18 kts | 121° |
| 2026-05-09 13:14 | 40.63834 | -73.79178 | 27 ft | 18 kts | 121° |
| 2026-05-09 13:16 | 40.63363 | -73.78137 | 27 ft | 21 kts | 121° |
| 2026-05-09 13:16 | 40.63333 | -73.77964 | 27 ft | 20 kts | 85° |
| 2026-05-09 13:16 | 40.63388 | -73.77807 | 28 ft | 19 kts | 44° |
| 2026-05-09 13:16 | 40.63501 | -73.77713 | 27 ft | 20 kts | 30° |
| 2026-05-09 13:17 | 40.63624 | -73.77618 | 26 ft | 21 kts | 31° |
| 2026-05-09 13:17 | 40.63750 | -73.77519 | 31 ft | 22 kts | 31° |
| 2026-05-09 13:17 | 40.63880 | -73.77416 | 26 ft | 22 kts | 31° |
| 2026-05-09 13:17 | 40.64012 | -73.77313 | 27 ft | 22 kts | 31° |
| 2026-05-09 13:18 | 40.64145 | -73.77209 | 27 ft | 22 kts | 31° |
| 2026-05-09 13:18 | 40.64281 | -73.77104 | 27 ft | 23 kts | 31° |
| 2026-05-09 13:18 | 40.64422 | -73.77004 | 26 ft | 23 kts | 17° |
| 2026-05-09 13:18 | 40.64573 | -73.76935 | 27 ft | 23 kts | 28° |
| 2026-05-09 13:19 | 40.64712 | -73.76827 | 26 ft | 23 kts | 31° |
| 2026-05-09 13:19 | 40.64850 | -73.76719 | 28 ft | 23 kts | 31° |
| 2026-05-09 13:19 | 40.64924 | -73.76632 | 27 ft | 8 kts | 76° |
| 2026-05-09 13:19 | 40.64919 | -73.76590 | 28 ft | 0 kts | 110° |
| 2026-05-09 13:21 | 40.64897 | -73.76540 | 28 ft | 13 kts | 130° |
| 2026-05-09 13:22 | 40.64799 | -73.76533 | 28 ft | 15 kts | 208° |
| 2026-05-09 13:22 | 40.64679 | -73.76624 | 26 ft | 36 kts | 210° |
| 2026-05-09 13:22 | 40.64284 | -73.76931 | 27 ft | 95 kts | 211° |
| 2026-05-09 13:23 | 40.60749 | -73.79696 | 1538 ft | 162 kts | 212° |
| 2026-05-09 13:23 | 40.59733 | -73.80489 | 1820 ft | 180 kts | 213° |
| 2026-05-09 13:24 | 40.58584 | -73.81382 | 2045 ft | 205 kts | 212° |
| 2026-05-09 13:24 | 40.57146 | -73.81947 | 2365 ft | 231 kts | 185° |
| 2026-05-09 13:24 | 40.55548 | -73.81375 | 2948 ft | 250 kts | 156° |
| 2026-05-09 13:24 | 40.54268 | -73.79725 | 3568 ft | 269 kts | 127° |
| 2026-05-09 13:25 | 40.53664 | -73.77340 | 4206 ft | 284 kts | 99° |
| 2026-05-09 13:25 | 40.53697 | -73.74723 | 4902 ft | 289 kts | 89° |
| 2026-05-09 13:25 | 40.54038 | -73.69468 | 6280 ft | 291 kts | 91° |
| 2026-05-09 13:26 | 40.54140 | -73.66792 | 6970 ft | 294 kts | 92° |
| 2026-05-09 13:26 | 40.54237 | -73.64095 | 7653 ft | 296 kts | 92° |
| 2026-05-09 13:26 | 40.54327 | -73.61374 | 8377 ft | 299 kts | 92° |
| 2026-05-09 13:26 | 40.54410 | -73.58628 | 9101 ft | 303 kts | 92° |
| 2026-05-09 13:27 | 40.54491 | -73.55839 | 9809 ft | 307 kts | 92° |
| 2026-05-09 13:27 | 40.54570 | -73.52992 | 10344 ft | 317 kts | 92° |
| 2026-05-09 13:27 | 40.54647 | -73.50018 | 10634 ft | 335 kts | 92° |
| 2026-05-09 13:27 | 40.54728 | -73.46875 | 10892 ft | 354 kts | 91° |
| 2026-05-09 13:28 | 40.54816 | -73.43531 | 10985 ft | 374 kts | 91° |
| 2026-05-09 13:28 | 40.54910 | -73.40089 | 10981 ft | 381 kts | 91° |
| 2026-05-09 13:28 | 40.55011 | -73.36593 | 10987 ft | 382 kts | 91° |
| 2026-05-09 13:28 | 40.55112 | -73.33099 | 10996 ft | 382 kts | 91° |
| 2026-05-09 13:29 | 40.55210 | -73.29621 | 11000 ft | 382 kts | 91° |
| 2026-05-09 13:29 | 40.55305 | -73.26121 | 11001 ft | 382 kts | 91° |
| 2026-05-09 13:29 | 40.55397 | -73.22633 | 11006 ft | 383 kts | 91° |
| 2026-05-09 13:29 | 40.55487 | -73.19100 | 11267 ft | 387 kts | 91° |
| 2026-05-09 13:30 | 40.55575 | -73.15560 | 11925 ft | 390 kts | 91° |
| 2026-05-09 13:30 | 40.55662 | -73.12017 | 12537 ft | 394 kts | 91° |
| 2026-05-09 13:30 | 40.55749 | -73.08392 | 13159 ft | 399 kts | 91° |
| 2026-05-09 13:30 | 40.55843 | -73.04726 | 13755 ft | 403 kts | 90° |
| 2026-05-09 13:31 | 40.56190 | -73.01040 | 14248 ft | 410 kts | 79° |
| 2026-05-09 13:31 | 40.56902 | -72.97381 | 14738 ft | 416 kts | 74° |
| 2026-05-09 13:31 | 40.57756 | -72.93718 | 15248 ft | 420 kts | 72° |
| 2026-05-09 13:31 | 40.58687 | -72.90056 | 15755 ft | 425 kts | 70° |
| 2026-05-09 13:32 | 40.59659 | -72.86360 | 16275 ft | 429 kts | 70° |
| 2026-05-09 13:32 | 40.61636 | -72.78855 | 17297 ft | 438 kts | 70° |
| 2026-05-09 13:32 | 40.62626 | -72.75041 | 17806 ft | 443 kts | 70° |
| 2026-05-09 13:33 | 40.63620 | -72.71172 | 18294 ft | 448 kts | 70° |
| 2026-05-09 13:33 | 40.64617 | -72.67261 | 18776 ft | 452 kts | 70° |
| 2026-05-09 13:33 | 40.65615 | -72.63332 | 19269 ft | 455 kts | 70° |
| 2026-05-09 13:33 | 40.66609 | -72.59416 | 19765 ft | 459 kts | 69° |
| 2026-05-09 13:34 | 40.67892 | -72.55571 | 20244 ft | 458 kts | 59° |
| 2026-05-09 13:34 | 40.69447 | -72.51886 | 20755 ft | 461 kts | 56° |
| 2026-05-09 13:34 | 40.71113 | -72.48265 | 21231 ft | 464 kts | 54° |
| 2026-05-09 13:34 | 40.72855 | -72.44658 | 21721 ft | 467 kts | 53° |
| 2026-05-09 13:35 | 40.74630 | -72.41051 | 22203 ft | 470 kts | 53° |
| 2026-05-09 13:35 | 40.76422 | -72.37423 | 22718 ft | 474 kts | 53° |
| 2026-05-09 13:35 | 40.78220 | -72.33765 | 23194 ft | 478 kts | 53° |
| 2026-05-09 13:35 | 40.80031 | -72.30057 | 23662 ft | 482 kts | 53° |
| 2026-05-09 13:36 | 40.81845 | -72.26320 | 24117 ft | 485 kts | 53° |
| 2026-05-09 13:36 | 40.83668 | -72.22545 | 24456 ft | 490 kts | 53° |
| 2026-05-09 13:36 | 40.85502 | -72.18739 | 24891 ft | 492 kts | 53° |
| 2026-05-09 13:36 | 40.86719 | -72.16209 | 25197 ft | 493 kts | 53° |
| 2026-05-09 13:37 | 40.89187 | -72.11074 | 25751 ft | 497 kts | 53° |
| 2026-05-09 13:37 | 40.90414 | -72.08518 | 26013 ft | 499 kts | 53° |
| 2026-05-09 13:37 | 40.92279 | -72.04629 | 26419 ft | 501 kts | 53° |
| 2026-05-09 13:37 | 40.94151 | -72.00722 | 26825 ft | 504 kts | 53° |
| 2026-05-09 13:38 | 40.96029 | -71.96798 | 27236 ft | 506 kts | 53° |
| 2026-05-09 13:38 | 40.97914 | -71.92852 | 27631 ft | 509 kts | 53° |
| 2026-05-09 13:38 | 40.99813 | -71.88875 | 27951 ft | 513 kts | 53° |
| 2026-05-09 13:38 | 41.01719 | -71.84877 | 28381 ft | 515 kts | 53° |
| 2026-05-09 13:39 | 41.03635 | -71.80851 | 28760 ft | 517 kts | 53° |
| 2026-05-09 13:39 | 41.05557 | -71.76807 | 29120 ft | 520 kts | 53° |
| 2026-05-09 13:39 | 41.07467 | -71.72786 | 29474 ft | 522 kts | 53° |
| 2026-05-09 13:39 | 41.09406 | -71.68698 | 29827 ft | 525 kts | 53° |
| 2026-05-09 13:40 | 41.11347 | -71.64598 | 30149 ft | 527 kts | 53° |
| 2026-05-09 13:40 | 41.13300 | -71.60467 | 30448 ft | 530 kts | 53° |
| 2026-05-09 13:40 | 41.15265 | -71.56307 | 30702 ft | 533 kts | 53° |
| 2026-05-09 13:40 | 41.17231 | -71.52140 | 31001 ft | 534 kts | 53° |
| 2026-05-09 13:41 | 41.19202 | -71.47953 | 31269 ft | 536 kts | 53° |
| 2026-05-09 13:41 | 41.21184 | -71.43739 | 31525 ft | 538 kts | 53° |
| 2026-05-09 13:41 | 41.23163 | -71.39524 | 31780 ft | 540 kts | 53° |
| 2026-05-09 13:41 | 41.25151 | -71.35285 | 32015 ft | 541 kts | 53° |
| 2026-05-09 13:42 | 41.27148 | -71.31023 | 32253 ft | 543 kts | 53° |
| 2026-05-09 13:42 | 41.29149 | -71.26743 | 32507 ft | 545 kts | 54° |
| 2026-05-09 13:42 | 41.31150 | -71.22459 | 32734 ft | 546 kts | 54° |
| 2026-05-09 13:42 | 41.33148 | -71.18172 | 33063 ft | 545 kts | 54° |
| 2026-05-09 13:43 | 41.35145 | -71.13882 | 33388 ft | 544 kts | 54° |
| 2026-05-09 13:43 | 41.37136 | -71.09600 | 33691 ft | 544 kts | 54° |
| 2026-05-09 13:43 | 41.39093 | -71.05384 | 33988 ft | 543 kts | 54° |
| 2026-05-09 13:43 | 41.41088 | -71.01082 | 34241 ft | 543 kts | 54° |
| 2026-05-09 13:44 | 41.43073 | -70.96796 | 34506 ft | 543 kts | 53° |
| 2026-05-09 13:44 | 41.45045 | -70.92530 | 34787 ft | 541 kts | 53° |
| 2026-05-09 13:44 | 41.47023 | -70.88248 | 34959 ft | 543 kts | 53° |
| 2026-05-09 13:44 | 41.49010 | -70.83942 | 35076 ft | 545 kts | 54° |
| 2026-05-09 13:45 | 41.50989 | -70.79646 | 35228 ft | 545 kts | 54° |
| 2026-05-09 13:45 | 41.52980 | -70.75319 | 35403 ft | 546 kts | 54° |
| 2026-05-09 13:45 | 41.54963 | -70.71000 | 35572 ft | 547 kts | 54° |
| 2026-05-09 13:45 | 41.56953 | -70.66661 | 35738 ft | 547 kts | 54° |
| 2026-05-09 13:46 | 41.58934 | -70.62333 | 35965 ft | 547 kts | 54° |
| 2026-05-09 13:46 | 41.60919 | -70.57990 | 36174 ft | 547 kts | 54° |
| 2026-05-09 13:46 | 41.64884 | -70.49300 | 36410 ft | 549 kts | 54° |
| 2026-05-09 13:47 | 41.66873 | -70.44933 | 36554 ft | 549 kts | 54° |
| 2026-05-09 13:47 | 41.68832 | -70.40622 | 36687 ft | 550 kts | 54° |
| 2026-05-09 13:47 | 41.70818 | -70.36249 | 36820 ft | 550 kts | 54° |
| 2026-05-09 13:47 | 41.72806 | -70.31862 | 36996 ft | 550 kts | 54° |
| 2026-05-09 13:48 | 41.76790 | -70.23054 | 37045 ft | 556 kts | 54° |
| 2026-05-09 13:48 | 41.80798 | -70.14169 | 37067 ft | 557 kts | 54° |
| 2026-05-09 13:49 | 41.84794 | -70.05278 | 37074 ft | 556 kts | 54° |
| 2026-05-09 13:49 | 41.88783 | -69.96375 | 37068 ft | 555 kts | 54° |
| 2026-05-09 13:50 | 41.92758 | -69.87480 | 37077 ft | 555 kts | 54° |
| 2026-05-09 13:50 | 41.96695 | -69.78648 | 37077 ft | 554 kts | 54° |
| 2026-05-09 13:51 | 42.00650 | -69.69746 | 37105 ft | 554 kts | 54° |
| 2026-05-09 13:51 | 42.04597 | -69.60836 | 37079 ft | 554 kts | 54° |
| 2026-05-09 13:52 | 42.08538 | -69.51915 | 37080 ft | 554 kts | 54° |
| 2026-05-09 13:52 | 42.12472 | -69.42980 | 37083 ft | 554 kts | 54° |
| 2026-05-09 13:53 | 42.16391 | -69.34054 | 37087 ft | 554 kts | 54° |
| 2026-05-09 13:53 | 42.20313 | -69.25093 | 37089 ft | 554 kts | 54° |
| 2026-05-09 13:54 | 42.24219 | -69.16143 | 37082 ft | 554 kts | 54° |
| 2026-05-09 13:54 | 42.28119 | -69.07178 | 37114 ft | 553 kts | 54° |
| 2026-05-09 13:55 | 42.32003 | -68.98222 | 37095 ft | 553 kts | 54° |
| 2026-05-09 13:55 | 42.35883 | -68.89251 | 37093 ft | 553 kts | 54° |
| 2026-05-09 13:56 | 42.39731 | -68.80327 | 37093 ft | 553 kts | 54° |
| 2026-05-09 13:56 | 42.43593 | -68.71340 | 37092 ft | 552 kts | 54° |
| 2026-05-09 13:57 | 42.47444 | -68.62353 | 37093 ft | 552 kts | 54° |
| 2026-05-09 13:57 | 42.51286 | -68.53360 | 37097 ft | 552 kts | 55° |
| 2026-05-09 13:58 | 42.55128 | -68.44341 | 37118 ft | 552 kts | 55° |
| 2026-05-09 13:58 | 42.58951 | -68.35333 | 37097 ft | 550 kts | 55° |
| 2026-05-09 13:59 | 42.62765 | -68.26323 | 37100 ft | 550 kts | 55° |
| 2026-05-09 13:59 | 42.66576 | -68.17294 | 37088 ft | 550 kts | 55° |
| 2026-05-09 14:00 | 42.69096 | -68.11308 | 37101 ft | 550 kts | 55° |
| 2026-05-09 14:00 | 42.74148 | -67.99270 | 37103 ft | 551 kts | 55° |
| 2026-05-09 14:01 | 42.77935 | -67.90210 | 37107 ft | 550 kts | 55° |
| 2026-05-09 14:01 | 42.81714 | -67.81143 | 37111 ft | 550 kts | 55° |
| 2026-05-09 14:02 | 42.85484 | -67.72068 | 37103 ft | 550 kts | 55° |
| 2026-05-09 14:02 | 42.89249 | -67.62979 | 37103 ft | 550 kts | 56° |
| 2026-05-09 14:03 | 42.93011 | -67.53869 | 37102 ft | 550 kts | 56° |
| 2026-05-09 14:03 | 42.96764 | -67.44751 | 37103 ft | 551 kts | 56° |
| 2026-05-09 14:04 | 43.00511 | -67.35621 | 37104 ft | 551 kts | 56° |
| 2026-05-09 14:04 | 43.04248 | -67.26484 | 37103 ft | 551 kts | 56° |
| 2026-05-09 14:05 | 43.07958 | -67.17387 | 37111 ft | 551 kts | 56° |
| 2026-05-09 14:05 | 43.11693 | -67.08197 | 37108 ft | 552 kts | 56° |
| 2026-05-09 14:06 | 43.15582 | -66.99164 | 37119 ft | 547 kts | 49° |
| 2026-05-09 14:06 | 43.20029 | -66.90723 | 37112 ft | 546 kts | 49° |
| 2026-05-09 14:07 | 43.24575 | -66.82367 | 37108 ft | 546 kts | 48° |
| 2026-05-09 14:07 | 43.29099 | -66.74060 | 37105 ft | 547 kts | 48° |
| 2026-05-09 14:08 | 43.33636 | -66.65682 | 37124 ft | 547 kts | 49° |
| 2026-05-09 14:08 | 43.38158 | -66.57289 | 37101 ft | 546 kts | 49° |
| 2026-05-09 14:09 | 43.42668 | -66.48890 | 37105 ft | 545 kts | 49° |
| 2026-05-09 14:09 | 43.47170 | -66.40484 | 37127 ft | 545 kts | 49° |
| 2026-05-09 14:10 | 43.53903 | -66.27868 | 37106 ft | 544 kts | 49° |
| 2026-05-09 14:11 | 43.58378 | -66.19453 | 37107 ft | 544 kts | 50° |
| 2026-05-09 14:11 | 43.62845 | -66.11031 | 37101 ft | 544 kts | 50° |
| 2026-05-09 14:12 | 43.67273 | -66.02654 | 37107 ft | 543 kts | 50° |
| 2026-05-09 14:12 | 43.71721 | -65.94219 | 37109 ft | 542 kts | 50° |
| 2026-05-09 14:13 | 43.76156 | -65.85784 | 37117 ft | 542 kts | 50° |
| 2026-05-09 14:15 | 43.93806 | -65.51966 | 37087 ft | 540 kts | 51° |
| 2026-05-09 14:15 | 43.98166 | -65.43552 | 37086 ft | 540 kts | 51° |
| 2026-05-09 14:16 | 44.02544 | -65.35078 | 37083 ft | 540 kts | 51° |
| 2026-05-09 14:16 | 44.06915 | -65.26594 | 37084 ft | 540 kts | 51° |
| 2026-05-09 14:17 | 44.11283 | -65.18092 | 37083 ft | 540 kts | 51° |
| 2026-05-09 14:17 | 44.15649 | -65.09567 | 37081 ft | 540 kts | 51° |
| 2026-05-09 14:18 | 44.20013 | -65.01024 | 37081 ft | 540 kts | 52° |
| 2026-05-09 14:18 | 44.24332 | -64.92539 | 37078 ft | 539 kts | 52° |
| 2026-05-09 14:19 | 44.28668 | -64.83998 | 37070 ft | 539 kts | 52° |
| 2026-05-09 14:19 | 44.32990 | -64.75460 | 37072 ft | 539 kts | 52° |
| 2026-05-09 14:20 | 44.37305 | -64.66911 | 37060 ft | 538 kts | 52° |
| 2026-05-09 14:20 | 44.41624 | -64.58329 | 37056 ft | 538 kts | 52° |
| 2026-05-09 14:21 | 44.48053 | -64.45506 | 37053 ft | 538 kts | 52° |
| 2026-05-09 14:21 | 44.52341 | -64.36921 | 37051 ft | 537 kts | 52° |
| 2026-05-09 14:22 | 44.56620 | -64.28329 | 37051 ft | 537 kts | 52° |
| 2026-05-09 14:22 | 44.60888 | -64.19734 | 37054 ft | 536 kts | 53° |
| 2026-05-09 14:23 | 44.65117 | -64.11194 | 37055 ft | 536 kts | 53° |
| 2026-05-09 14:23 | 44.69366 | -64.02583 | 37059 ft | 536 kts | 53° |
| 2026-05-09 14:24 | 44.73610 | -63.93960 | 37085 ft | 536 kts | 53° |
| 2026-05-09 14:24 | 44.77137 | -63.86776 | 37059 ft | 535 kts | 53° |
| 2026-05-09 14:25 | 44.82045 | -63.76742 | 37059 ft | 535 kts | 53° |
| 2026-05-09 14:25 | 44.85583 | -63.69490 | 37055 ft | 535 kts | 53° |
| 2026-05-09 14:26 | 44.89767 | -63.60891 | 37051 ft | 535 kts | 54° |
| 2026-05-09 14:26 | 44.93969 | -63.52226 | 37050 ft | 535 kts | 54° |
| 2026-05-09 14:27 | 44.98168 | -63.43544 | 37054 ft | 535 kts | 54° |
| 2026-05-09 14:27 | 45.02361 | -63.34845 | 37076 ft | 536 kts | 54° |
| 2026-05-09 14:28 | 45.06552 | -63.26127 | 37056 ft | 535 kts | 54° |
| 2026-05-09 14:28 | 45.10700 | -63.17470 | 37056 ft | 535 kts | 54° |
| 2026-05-09 14:29 | 45.14873 | -63.08734 | 37048 ft | 535 kts | 54° |
| 2026-05-09 14:29 | 45.19044 | -62.99976 | 37052 ft | 535 kts | 54° |
| 2026-05-09 14:30 | 45.23205 | -62.91213 | 37054 ft | 535 kts | 54° |
| 2026-05-09 14:30 | 45.27360 | -62.82434 | 37050 ft | 535 kts | 54° |
| 2026-05-09 14:31 | 45.31510 | -62.73641 | 37050 ft | 535 kts | 55° |
| 2026-05-09 14:31 | 45.35654 | -62.64831 | 37045 ft | 536 kts | 55° |
| 2026-05-09 14:32 | 45.39794 | -62.56003 | 37047 ft | 536 kts | 55° |
| 2026-05-09 14:32 | 45.43900 | -62.47221 | 37046 ft | 536 kts | 55° |
| 2026-05-09 14:33 | 45.48029 | -62.38360 | 37049 ft | 536 kts | 55° |
| 2026-05-09 14:33 | 45.52151 | -62.29489 | 37053 ft | 536 kts | 55° |
| 2026-05-09 14:34 | 45.56263 | -62.20609 | 37049 ft | 536 kts | 55° |
| 2026-05-09 14:34 | 45.60373 | -62.11709 | 37045 ft | 536 kts | 56° |
| 2026-05-09 14:35 | 45.64476 | -62.02795 | 37044 ft | 536 kts | 56° |
| 2026-05-09 14:35 | 45.68541 | -61.93933 | 37050 ft | 536 kts | 56° |
| 2026-05-09 14:36 | 45.72627 | -61.85001 | 37056 ft | 536 kts | 56° |
| 2026-05-09 14:36 | 45.76712 | -61.76041 | 37051 ft | 537 kts | 56° |
| 2026-05-09 14:37 | 45.80788 | -61.67071 | 37052 ft | 537 kts | 56° |
| 2026-05-09 14:37 | 45.84837 | -61.58133 | 37054 ft | 537 kts | 56° |
| 2026-05-09 14:38 | 45.88899 | -61.49138 | 37049 ft | 537 kts | 56° |
| 2026-05-09 14:38 | 45.92953 | -61.40132 | 37047 ft | 536 kts | 57° |
| 2026-05-09 14:39 | 45.96994 | -61.31127 | 37041 ft | 536 kts | 57° |
| 2026-05-09 14:39 | 46.01033 | -61.22095 | 37050 ft | 536 kts | 57° |
| 2026-05-09 14:40 | 46.05053 | -61.13079 | 37034 ft | 535 kts | 57° |
| 2026-05-09 14:40 | 46.09070 | -61.04040 | 37026 ft | 535 kts | 57° |
| 2026-05-09 14:41 | 46.13077 | -60.94992 | 37022 ft | 535 kts | 57° |
| 2026-05-09 14:41 | 46.17080 | -60.85929 | 37022 ft | 536 kts | 57° |
| 2026-05-09 14:42 | 46.21081 | -60.76837 | 37026 ft | 537 kts | 57° |
| 2026-05-09 14:42 | 46.25082 | -60.67715 | 37019 ft | 537 kts | 57° |
| 2026-05-09 14:43 | 46.29074 | -60.58585 | 37028 ft | 537 kts | 58° |
| 2026-05-09 14:43 | 46.33031 | -60.49502 | 37016 ft | 537 kts | 58° |
| 2026-05-09 14:44 | 46.37011 | -60.40340 | 37018 ft | 537 kts | 58° |
| 2026-05-09 14:44 | 46.40977 | -60.31179 | 37015 ft | 537 kts | 58° |
| 2026-05-09 14:45 | 46.44942 | -60.21993 | 37026 ft | 537 kts | 58° |
| 2026-05-09 14:45 | 46.48896 | -60.12797 | 37034 ft | 537 kts | 58° |
| 2026-05-09 14:46 | 46.52842 | -60.03590 | 37038 ft | 537 kts | 58° |
| 2026-05-09 14:46 | 46.56782 | -59.94369 | 37038 ft | 537 kts | 59° |
| 2026-05-09 14:47 | 46.60714 | -59.85134 | 37048 ft | 536 kts | 59° |
| 2026-05-09 14:47 | 46.64606 | -59.75963 | 37050 ft | 536 kts | 59° |
| 2026-05-09 14:48 | 46.68518 | -59.66715 | 37051 ft | 536 kts | 59° |
| 2026-05-09 14:48 | 46.72419 | -59.57461 | 37056 ft | 536 kts | 59° |
| 2026-05-09 14:49 | 46.76311 | -59.48197 | 37059 ft | 535 kts | 59° |
| 2026-05-09 14:49 | 46.80194 | -59.38925 | 37060 ft | 535 kts | 59° |
| 2026-05-09 14:50 | 46.84074 | -59.29626 | 37061 ft | 535 kts | 59° |
| 2026-05-09 14:50 | 46.87914 | -59.20395 | 37061 ft | 535 kts | 59° |
| 2026-05-09 14:51 | 46.91797 | -59.11025 | 37046 ft | 535 kts | 60° |
| 2026-05-09 14:51 | 46.95629 | -59.01749 | 37058 ft | 536 kts | 60° |
| 2026-05-09 14:52 | 46.99483 | -58.92390 | 37060 ft | 536 kts | 60° |
| 2026-05-09 14:52 | 47.03326 | -58.83021 | 37052 ft | 536 kts | 60° |
| 2026-05-09 14:53 | 47.07160 | -58.73644 | 37050 ft | 536 kts | 60° |
| 2026-05-09 14:53 | 47.10986 | -58.64255 | 37050 ft | 536 kts | 60° |
| 2026-05-09 14:54 | 47.14814 | -58.54830 | 37047 ft | 536 kts | 60° |
| 2026-05-09 14:54 | 47.18596 | -58.45483 | 37045 ft | 535 kts | 61° |
| 2026-05-09 14:55 | 47.22398 | -58.36054 | 37041 ft | 535 kts | 61° |
| 2026-05-09 14:55 | 47.26191 | -58.26617 | 37032 ft | 535 kts | 61° |
| 2026-05-09 14:56 | 47.29971 | -58.17179 | 37030 ft | 535 kts | 61° |
| 2026-05-09 14:56 | 47.33750 | -58.07708 | 37035 ft | 536 kts | 62° |
| 2026-05-09 14:57 | 47.37501 | -57.98276 | 37020 ft | 536 kts | 62° |
| 2026-05-09 14:57 | 47.41260 | -57.88793 | 37028 ft | 536 kts | 62° |
| 2026-05-09 14:58 | 47.45014 | -57.79286 | 37013 ft | 536 kts | 62° |
| 2026-05-09 14:58 | 47.48762 | -57.69761 | 37012 ft | 536 kts | 62° |
| 2026-05-09 14:59 | 47.52508 | -57.60210 | 37000 ft | 536 kts | 62° |
| 2026-05-09 14:59 | 47.56240 | -57.50660 | 37004 ft | 535 kts | 62° |
| 2026-05-09 15:00 | 47.59958 | -57.41109 | 36998 ft | 535 kts | 63° |
| 2026-05-09 15:00 | 47.63650 | -57.31594 | 36993 ft | 535 kts | 63° |
| 2026-05-09 15:01 | 47.69203 | -57.17219 | 36955 ft | 535 kts | 63° |
| 2026-05-09 15:02 | 47.72900 | -57.07604 | 36982 ft | 536 kts | 63° |
| 2026-05-09 15:02 | 47.76588 | -56.97979 | 36963 ft | 537 kts | 63° |
| 2026-05-09 15:03 | 47.80276 | -56.88321 | 36946 ft | 537 kts | 64° |
| 2026-05-09 15:03 | 47.83961 | -56.78634 | 36945 ft | 537 kts | 64° |
| 2026-05-09 15:04 | 47.87637 | -56.68933 | 36916 ft | 538 kts | 64° |
| 2026-05-09 15:06 | 48.02251 | -56.30026 | 36879 ft | 538 kts | 64° |
| 2026-05-09 15:06 | 48.05883 | -56.20265 | 36878 ft | 538 kts | 64° |
| 2026-05-09 15:07 | 48.09517 | -56.10467 | 36875 ft | 538 kts | 65° |
| 2026-05-09 15:07 | 48.13133 | -56.00676 | 36880 ft | 538 kts | 65° |
| 2026-05-09 15:08 | 48.16744 | -55.90864 | 36879 ft | 538 kts | 65° |
| 2026-05-09 15:08 | 48.22147 | -55.76116 | 36881 ft | 538 kts | 65° |
| 2026-05-09 15:10 | 48.36430 | -55.36723 | 36881 ft | 537 kts | 66° |
| 2026-05-09 15:11 | 48.39987 | -55.26821 | 36883 ft | 537 kts | 66° |
| 2026-05-09 15:11 | 48.43525 | -55.16930 | 36888 ft | 537 kts | 66° |
| 2026-05-09 15:12 | 48.47037 | -55.07080 | 36875 ft | 537 kts | 67° |
| 2026-05-09 15:12 | 48.50566 | -54.97143 | 36911 ft | 537 kts | 67° |
| 2026-05-09 15:13 | 48.53488 | -54.88886 | 36890 ft | 537 kts | 67° |
| 2026-05-09 15:13 | 48.57003 | -54.78920 | 36902 ft | 537 kts | 67° |
| 2026-05-09 15:14 | 48.60505 | -54.68950 | 36938 ft | 537 kts | 68° |
| 2026-05-09 15:14 | 48.63995 | -54.58977 | 36940 ft | 537 kts | 68° |
| 2026-05-09 15:15 | 48.67479 | -54.48981 | 36951 ft | 537 kts | 68° |
| 2026-05-09 15:15 | 48.70956 | -54.38968 | 36953 ft | 537 kts | 68° |
| 2026-05-09 15:16 | 48.74396 | -54.29024 | 36933 ft | 537 kts | 68° |
| 2026-05-09 15:16 | 48.77850 | -54.19002 | 36938 ft | 536 kts | 68° |
| 2026-05-09 15:17 | 48.81292 | -54.08972 | 36943 ft | 536 kts | 69° |
| 2026-05-09 15:17 | 48.84732 | -53.98906 | 36938 ft | 537 kts | 69° |
| 2026-05-09 15:18 | 48.88166 | -53.88823 | 36946 ft | 537 kts | 70° |
| 2026-05-09 15:18 | 48.91566 | -53.78804 | 36950 ft | 536 kts | 70° |
| 2026-05-09 15:19 | 48.94978 | -53.68709 | 36950 ft | 536 kts | 70° |
| 2026-05-09 15:19 | 48.98378 | -53.58607 | 36927 ft | 536 kts | 70° |
| 2026-05-09 15:20 | 49.03463 | -53.43425 | 36957 ft | 536 kts | 70° |
| 2026-05-09 15:21 | 49.06837 | -53.33297 | 36961 ft | 535 kts | 70° |
| 2026-05-09 15:21 | 49.10204 | -53.23153 | 36959 ft | 535 kts | 70° |
| 2026-05-09 15:22 | 49.13558 | -53.13011 | 36960 ft | 535 kts | 71° |
| 2026-05-09 15:22 | 49.16896 | -53.02874 | 36957 ft | 534 kts | 71° |
| 2026-05-09 15:23 | 49.20221 | -52.92731 | 36952 ft | 535 kts | 71° |
| 2026-05-09 15:23 | 49.23531 | -52.82590 | 36955 ft | 536 kts | 71° |
| 2026-05-09 15:24 | 49.26859 | -52.72359 | 36957 ft | 535 kts | 72° |
| 2026-05-09 15:24 | 49.30170 | -52.62148 | 36946 ft | 535 kts | 72° |
| 2026-05-09 15:25 | 49.33474 | -52.51913 | 36943 ft | 535 kts | 72° |
| 2026-05-09 15:25 | 49.36770 | -52.41656 | 36940 ft | 535 kts | 72° |
| 2026-05-09 15:26 | 49.41664 | -52.26350 | 36935 ft | 534 kts | 73° |
| 2026-05-09 15:26 | 49.44927 | -52.16091 | 36930 ft | 534 kts | 73° |
| 2026-05-09 15:27 | 49.48179 | -52.05826 | 36954 ft | 534 kts | 73° |
| 2026-05-09 15:27 | 49.49801 | -52.00688 | 37163 ft | 533 kts | 73° |
| 2026-05-09 15:27 | 49.51371 | -51.95541 | 37387 ft | 528 kts | 75° |
| 2026-05-09 15:28 | 49.52777 | -51.90329 | 37586 ft | 525 kts | 77° |
| 2026-05-09 15:28 | 49.54094 | -51.85091 | 37670 ft | 524 kts | 78° |
| 2026-05-09 15:28 | 49.55384 | -51.79849 | 37806 ft | 524 kts | 78° |
| 2026-05-09 15:28 | 49.56680 | -51.74600 | 37970 ft | 524 kts | 78° |
| 2026-05-09 15:29 | 49.57990 | -51.69363 | 38118 ft | 524 kts | 77° |
| 2026-05-09 15:29 | 49.59297 | -51.64198 | 38256 ft | 524 kts | 77° |
| 2026-05-09 15:29 | 49.60648 | -51.58906 | 38370 ft | 524 kts | 77° |
| 2026-05-09 15:29 | 49.61969 | -51.53747 | 38488 ft | 524 kts | 77° |
| 2026-05-09 15:30 | 49.63325 | -51.48453 | 38605 ft | 524 kts | 77° |
| 2026-05-09 15:30 | 49.64641 | -51.43303 | 38708 ft | 523 kts | 77° |
| 2026-05-09 15:30 | 49.67303 | -51.32845 | 38882 ft | 523 kts | 77° |
| 2026-05-09 15:31 | 49.69960 | -51.22338 | 38894 ft | 527 kts | 77° |
| 2026-05-09 15:31 | 49.72617 | -51.11786 | 38880 ft | 527 kts | 78° |
| 2026-05-09 15:32 | 49.75260 | -51.01255 | 38890 ft | 525 kts | 78° |
| 2026-05-09 15:32 | 49.77890 | -50.90725 | 38888 ft | 524 kts | 78° |
| 2026-05-09 15:33 | 49.80503 | -50.80206 | 38884 ft | 523 kts | 78° |
| 2026-05-09 15:33 | 49.83102 | -50.69692 | 38846 ft | 522 kts | 79° |
| 2026-05-09 15:34 | 49.85686 | -50.59182 | 38879 ft | 522 kts | 79° |
| 2026-05-09 15:34 | 49.88258 | -50.48673 | 38873 ft | 522 kts | 79° |
| 2026-05-09 15:35 | 49.90826 | -50.38132 | 38875 ft | 522 kts | 79° |
| 2026-05-09 15:35 | 49.93365 | -50.27661 | 38872 ft | 522 kts | 79° |
| 2026-05-09 15:36 | 49.95910 | -50.17118 | 38873 ft | 521 kts | 79° |
| 2026-05-09 15:36 | 49.98462 | -50.06495 | 38867 ft | 521 kts | 79° |
| 2026-05-09 15:37 | 50.00988 | -49.95982 | 38870 ft | 522 kts | 79° |
| 2026-05-09 15:37 | 50.03638 | -49.85439 | 38867 ft | 523 kts | 78° |
| 2026-05-09 15:38 | 50.06312 | -49.74901 | 38860 ft | 523 kts | 78° |
| 2026-05-09 15:38 | 50.08945 | -49.64407 | 38867 ft | 524 kts | 79° |
| 2026-05-09 15:39 | 50.11573 | -49.53839 | 38863 ft | 523 kts | 79° |
| 2026-05-09 15:39 | 50.14194 | -49.43229 | 38860 ft | 523 kts | 79° |
| 2026-05-09 15:40 | 50.16803 | -49.32619 | 38855 ft | 523 kts | 79° |
| 2026-05-09 15:40 | 50.19402 | -49.22000 | 38861 ft | 524 kts | 79° |
| 2026-05-09 15:41 | 50.21991 | -49.11373 | 38864 ft | 523 kts | 79° |
| 2026-05-09 15:41 | 50.24555 | -49.00799 | 38864 ft | 523 kts | 79° |
| 2026-05-09 15:42 | 50.27124 | -48.90151 | 38844 ft | 523 kts | 79° |
| 2026-05-09 15:42 | 50.29678 | -48.79518 | 38862 ft | 522 kts | 79° |
| 2026-05-09 15:43 | 50.32216 | -48.68892 | 38867 ft | 521 kts | 79° |
| 2026-05-09 15:43 | 50.34741 | -48.58265 | 38867 ft | 521 kts | 79° |
| 2026-05-09 15:44 | 50.37260 | -48.47617 | 38838 ft | 521 kts | 79° |
| 2026-05-09 15:44 | 50.39770 | -48.36953 | 38881 ft | 522 kts | 79° |
| 2026-05-09 15:45 | 50.42274 | -48.26267 | 38881 ft | 523 kts | 79° |
| 2026-05-09 15:45 | 50.44774 | -48.15548 | 38878 ft | 523 kts | 79° |
| 2026-05-09 15:46 | 50.47263 | -48.04825 | 38879 ft | 522 kts | 79° |
| 2026-05-09 15:46 | 50.49719 | -47.94181 | 38888 ft | 523 kts | 79° |
| 2026-05-09 15:47 | 50.52191 | -47.83410 | 38891 ft | 523 kts | 79° |
| 2026-05-09 15:47 | 50.54650 | -47.72646 | 38884 ft | 523 kts | 79° |
| 2026-05-09 15:48 | 50.57100 | -47.61861 | 38896 ft | 524 kts | 79° |
| 2026-05-09 15:48 | 50.59548 | -47.51039 | 38910 ft | 524 kts | 79° |
| 2026-05-09 15:49 | 50.61983 | -47.40222 | 38914 ft | 524 kts | 79° |
| 2026-05-09 15:49 | 50.64409 | -47.29385 | 38910 ft | 524 kts | 79° |
| 2026-05-09 15:50 | 50.66823 | -47.18543 | 38910 ft | 524 kts | 79° |
| 2026-05-09 15:50 | 50.69227 | -47.07685 | 38919 ft | 524 kts | 79° |
| 2026-05-09 15:51 | 50.71628 | -46.96778 | 38924 ft | 528 kts | 79° |
| 2026-05-09 15:51 | 50.74021 | -46.85857 | 38933 ft | 529 kts | 79° |
| 2026-05-09 15:52 | 50.77616 | -46.69371 | 38932 ft | 528 kts | 79° |
| 2026-05-09 15:53 | 50.79991 | -46.58391 | 38937 ft | 527 kts | 78° |
| 2026-05-09 15:53 | 50.82346 | -46.47452 | 38954 ft | 525 kts | 78° |
| 2026-05-09 15:54 | 50.84686 | -46.36513 | 38962 ft | 524 kts | 79° |
| 2026-05-09 15:54 | 50.86997 | -46.25651 | 38957 ft | 524 kts | 79° |
| 2026-05-09 15:55 | 50.89324 | -46.14654 | 38974 ft | 524 kts | 78° |
| 2026-05-09 15:55 | 50.91610 | -46.03796 | 38977 ft | 523 kts | 78° |
| 2026-05-09 15:56 | 50.93902 | -45.92852 | 38985 ft | 523 kts | 78° |
| 2026-05-09 15:56 | 50.96187 | -45.81878 | 38987 ft | 523 kts | 78° |
| 2026-05-09 15:57 | 50.98456 | -45.70925 | 38979 ft | 523 kts | 78° |
| 2026-05-09 15:57 | 51.00711 | -45.59989 | 39006 ft | 518 kts | 78° |
| 2026-05-09 15:58 | 51.02924 | -45.49193 | 39004 ft | 516 kts | 78° |
| 2026-05-09 15:58 | 51.05131 | -45.38356 | 39018 ft | 515 kts | 78° |
| 2026-05-09 15:59 | 51.07326 | -45.27516 | 39041 ft | 515 kts | 78° |
| 2026-05-09 15:59 | 51.09511 | -45.16671 | 39036 ft | 514 kts | 78° |
| 2026-05-09 16:00 | 51.11329 | -45.07608 | 39038 ft | 512 kts | 78° |
| 2026-05-09 16:00 | 51.13470 | -44.96873 | 39051 ft | 512 kts | 78° |
| 2026-05-09 16:01 | 51.15613 | -44.86063 | 39061 ft | 512 kts | 78° |
| 2026-05-09 16:01 | 51.17749 | -44.75235 | 39047 ft | 512 kts | 78° |
| 2026-05-09 16:02 | 51.19875 | -44.64396 | 39074 ft | 512 kts | 78° |
| 2026-05-09 16:02 | 51.23046 | -44.48118 | 39076 ft | 512 kts | 78° |
| 2026-05-09 16:03 | 51.25146 | -44.37262 | 39081 ft | 512 kts | 78° |
| 2026-05-09 16:03 | 51.27236 | -44.26396 | 39087 ft | 512 kts | 78° |
| 2026-05-09 16:04 | 51.29309 | -44.15566 | 39093 ft | 508 kts | 78° |
| 2026-05-09 16:04 | 51.31350 | -44.04828 | 39105 ft | 508 kts | 78° |
| 2026-05-09 16:05 | 51.33393 | -43.94013 | 39113 ft | 508 kts | 78° |
| 2026-05-09 16:05 | 51.35427 | -43.83190 | 39123 ft | 508 kts | 78° |
| 2026-05-09 16:06 | 51.37454 | -43.72345 | 39123 ft | 507 kts | 78° |
| 2026-05-09 16:06 | 51.39464 | -43.61527 | 39133 ft | 507 kts | 78° |
| 2026-05-09 16:07 | 51.41466 | -43.50687 | 39151 ft | 507 kts | 78° |
| 2026-05-09 16:07 | 51.43454 | -43.39855 | 39155 ft | 507 kts | 78° |
| 2026-05-09 16:08 | 51.45421 | -43.29076 | 39154 ft | 506 kts | 78° |
| 2026-05-09 16:08 | 51.47386 | -43.18251 | 39157 ft | 503 kts | 78° |
| 2026-05-09 16:09 | 51.49329 | -43.07483 | 39176 ft | 502 kts | 78° |
| 2026-05-09 16:09 | 51.51261 | -42.96706 | 39184 ft | 502 kts | 78° |
| 2026-05-09 16:10 | 51.53181 | -42.85929 | 39195 ft | 502 kts | 78° |
| 2026-05-09 16:10 | 51.55093 | -42.75137 | 39195 ft | 502 kts | 78° |
| 2026-05-09 16:11 | 51.56994 | -42.64343 | 39206 ft | 502 kts | 78° |
| 2026-05-09 16:11 | 51.58886 | -42.53537 | 39211 ft | 502 kts | 79° |
| 2026-05-09 16:12 | 51.60765 | -42.42739 | 39214 ft | 502 kts | 79° |
| 2026-05-09 16:12 | 51.62637 | -42.31910 | 39214 ft | 501 kts | 78° |
| 2026-05-09 16:13 | 51.64493 | -42.21113 | 39221 ft | 500 kts | 79° |
| 2026-05-09 16:13 | 51.66328 | -42.10370 | 39224 ft | 500 kts | 78° |
| 2026-05-09 16:14 | 51.68163 | -41.99555 | 39240 ft | 501 kts | 78° |
| 2026-05-09 16:14 | 51.69995 | -41.88692 | 39251 ft | 501 kts | 78° |
| 2026-05-09 16:15 | 51.71815 | -41.77837 | 39254 ft | 502 kts | 78° |
| 2026-05-09 16:15 | 51.73632 | -41.66926 | 39264 ft | 504 kts | 78° |
| 2026-05-09 16:16 | 51.75441 | -41.56002 | 39267 ft | 504 kts | 78° |
| 2026-05-09 16:16 | 51.77229 | -41.45134 | 39285 ft | 504 kts | 78° |
| 2026-05-09 16:17 | 51.79021 | -41.34167 | 39276 ft | 504 kts | 78° |
| 2026-05-09 16:17 | 51.80790 | -41.23272 | 39285 ft | 504 kts | 78° |
| 2026-05-09 16:18 | 51.82558 | -41.12309 | 39305 ft | 504 kts | 78° |
| 2026-05-09 16:18 | 51.84319 | -41.01322 | 39304 ft | 504 kts | 78° |
| 2026-05-09 16:19 | 51.86070 | -40.90327 | 39298 ft | 504 kts | 78° |
| 2026-05-09 16:19 | 51.87806 | -40.79344 | 39308 ft | 503 kts | 78° |
| 2026-05-09 16:20 | 51.89527 | -40.68391 | 39332 ft | 502 kts | 78° |
| 2026-05-09 16:20 | 51.91235 | -40.57446 | 39335 ft | 501 kts | 78° |
| 2026-05-09 16:21 | 51.92924 | -40.46550 | 39340 ft | 501 kts | 78° |
| 2026-05-09 16:21 | 51.94610 | -40.35594 | 39338 ft | 501 kts | 79° |
| 2026-05-09 16:22 | 51.96282 | -40.24647 | 39346 ft | 498 kts | 78° |
| 2026-05-09 16:22 | 51.97936 | -40.13748 | 39357 ft | 497 kts | 79° |
| 2026-05-09 16:23 | 51.99583 | -40.02839 | 39370 ft | 497 kts | 78° |
| 2026-05-09 16:23 | 52.01208 | -39.91910 | 39375 ft | 497 kts | 79° |
| 2026-05-09 16:24 | 52.02776 | -39.80963 | 39373 ft | 498 kts | 79° |
| 2026-05-09 16:24 | 52.04326 | -39.70022 | 39391 ft | 497 kts | 79° |
| 2026-05-09 16:25 | 52.05873 | -39.59080 | 39388 ft | 497 kts | 78° |
| 2026-05-09 16:25 | 52.07404 | -39.48223 | 39395 ft | 497 kts | 78° |
| 2026-05-09 16:26 | 52.08934 | -39.37287 | 39398 ft | 496 kts | 78° |
| 2026-05-09 16:26 | 52.10454 | -39.26343 | 39401 ft | 496 kts | 79° |
| 2026-05-09 16:27 | 52.11964 | -39.15402 | 39401 ft | 494 kts | 79° |
| 2026-05-09 16:27 | 52.13460 | -39.04475 | 39404 ft | 494 kts | 79° |
| 2026-05-09 16:28 | 52.14946 | -38.93543 | 39405 ft | 494 kts | 79° |
| 2026-05-09 16:28 | 52.16420 | -38.82606 | 39412 ft | 494 kts | 79° |
| 2026-05-09 16:29 | 52.17882 | -38.71676 | 39428 ft | 493 kts | 79° |
| 2026-05-09 16:29 | 52.19328 | -38.60772 | 39424 ft | 492 kts | 79° |
| 2026-05-09 16:30 | 52.20756 | -38.49942 | 39437 ft | 491 kts | 79° |
| 2026-05-09 16:30 | 52.22184 | -38.39028 | 39445 ft | 492 kts | 79° |
| 2026-05-09 16:31 | 52.23597 | -38.28127 | 39458 ft | 492 kts | 79° |
| 2026-05-09 16:31 | 52.25001 | -38.17212 | 39460 ft | 491 kts | 79° |
| 2026-05-09 16:32 | 52.26170 | -38.08075 | 39461 ft | 490 kts | 79° |
| 2026-05-09 16:32 | 52.27778 | -37.95408 | 39467 ft | 491 kts | 79° |
| 2026-05-09 16:33 | 52.29154 | -37.84466 | 39471 ft | 490 kts | 79° |
| 2026-05-09 16:33 | 52.30515 | -37.73557 | 39479 ft | 490 kts | 79° |
| 2026-05-09 16:34 | 52.31865 | -37.62646 | 39475 ft | 490 kts | 79° |
| 2026-05-09 16:34 | 52.33208 | -37.51710 | 39473 ft | 490 kts | 79° |
| 2026-05-09 16:35 | 52.34540 | -37.40774 | 39472 ft | 490 kts | 79° |
| 2026-05-09 16:35 | 52.35862 | -37.29829 | 39487 ft | 490 kts | 79° |
| 2026-05-09 16:36 | 52.38455 | -37.08087 | 39497 ft | 488 kts | 79° |
| 2026-05-09 16:37 | 52.39742 | -36.97162 | 39503 ft | 489 kts | 79° |
| 2026-05-09 16:37 | 52.41022 | -36.86210 | 39503 ft | 489 kts | 79° |
| 2026-05-09 16:38 | 52.42288 | -36.75274 | 39516 ft | 489 kts | 79° |
| 2026-05-09 16:38 | 52.43546 | -36.64321 | 39515 ft | 489 kts | 79° |
| 2026-05-09 16:39 | 52.44785 | -36.53437 | 39525 ft | 488 kts | 79° |
| 2026-05-09 16:39 | 52.46021 | -36.42482 | 39525 ft | 488 kts | 79° |
| 2026-05-09 16:40 | 52.47247 | -36.31528 | 39533 ft | 488 kts | 79° |
| 2026-05-09 16:42 | 52.52035 | -35.87777 | 39542 ft | 484 kts | 79° |
| 2026-05-09 16:42 | 52.53200 | -35.76889 | 39549 ft | 484 kts | 79° |
| 2026-05-09 16:43 | 52.54346 | -35.66080 | 39554 ft | 484 kts | 78° |
| 2026-05-09 16:43 | 52.55487 | -35.55205 | 39545 ft | 482 kts | 78° |
| 2026-05-09 16:44 | 52.56617 | -35.44331 | 39562 ft | 482 kts | 78° |
| 2026-05-09 16:44 | 52.57738 | -35.33456 | 39570 ft | 482 kts | 78° |
| 2026-05-09 16:45 | 52.58847 | -35.22591 | 39570 ft | 482 kts | 78° |
| 2026-05-09 16:45 | 52.59948 | -35.11711 | 39566 ft | 482 kts | 78° |
| 2026-05-09 16:46 | 52.61039 | -35.00844 | 39566 ft | 480 kts | 78° |
| 2026-05-09 16:46 | 52.62114 | -34.90010 | 39573 ft | 480 kts | 78° |
| 2026-05-09 16:47 | 52.63000 | -34.80996 | 39584 ft | 479 kts | 78° |
| 2026-05-09 16:47 | 52.64054 | -34.70178 | 39584 ft | 478 kts | 78° |
| 2026-05-09 16:48 | 52.65098 | -34.59360 | 39587 ft | 478 kts | 78° |
| 2026-05-09 16:48 | 52.66129 | -34.48571 | 39587 ft | 476 kts | 78° |
| 2026-05-09 16:49 | 52.67144 | -34.37843 | 39586 ft | 476 kts | 79° |
| 2026-05-09 16:50 | 52.68655 | -34.21672 | 39588 ft | 476 kts | 79° |
| 2026-05-09 16:50 | 52.69649 | -34.10894 | 39590 ft | 476 kts | 79° |
| 2026-05-09 16:51 | 52.70633 | -34.00114 | 39599 ft | 474 kts | 79° |
| 2026-05-09 16:51 | 52.71604 | -33.89357 | 39595 ft | 473 kts | 79° |
| 2026-05-09 16:52 | 52.72564 | -33.78618 | 39598 ft | 473 kts | 79° |
| 2026-05-09 16:52 | 52.73507 | -33.67966 | 39598 ft | 473 kts | 79° |
| 2026-05-09 16:53 | 52.74447 | -33.57215 | 39598 ft | 471 kts | 78° |
| 2026-05-09 16:53 | 52.75369 | -33.46558 | 39602 ft | 467 kts | 78° |
| 2026-05-09 16:54 | 52.76277 | -33.35954 | 39603 ft | 466 kts | 79° |
| 2026-05-09 16:54 | 52.77175 | -33.25363 | 39605 ft | 466 kts | 79° |
| 2026-05-09 16:55 | 52.78063 | -33.14773 | 39605 ft | 466 kts | 79° |
| 2026-05-09 16:55 | 52.78938 | -33.04226 | 39605 ft | 466 kts | 79° |
| 2026-05-09 16:56 | 52.79807 | -32.93613 | 39618 ft | 465 kts | 79° |
| 2026-05-09 16:56 | 52.80663 | -32.83043 | 39607 ft | 464 kts | 79° |
| 2026-05-09 16:57 | 52.81512 | -32.72445 | 39617 ft | 464 kts | 79° |
| 2026-05-09 16:57 | 52.82350 | -32.61870 | 39614 ft | 464 kts | 79° |
| 2026-05-09 16:58 | 52.83179 | -32.51288 | 39614 ft | 464 kts | 79° |
| 2026-05-09 16:58 | 52.83998 | -32.40703 | 39617 ft | 464 kts | 79° |
| 2026-05-09 16:59 | 52.84802 | -32.30171 | 39622 ft | 462 kts | 79° |
| 2026-05-09 16:59 | 52.85596 | -32.19653 | 39621 ft | 460 kts | 79° |
| 2026-05-09 17:00 | 52.86381 | -32.09137 | 39623 ft | 460 kts | 79° |
| 2026-05-09 17:00 | 52.87157 | -31.98618 | 39621 ft | 460 kts | 79° |
| 2026-05-09 17:01 | 52.87923 | -31.88088 | 39623 ft | 460 kts | 79° |
| 2026-05-09 17:01 | 52.88677 | -31.77588 | 39624 ft | 459 kts | 79° |
| 2026-05-09 17:02 | 52.89424 | -31.67069 | 39628 ft | 459 kts | 79° |
| 2026-05-09 17:02 | 52.90156 | -31.56628 | 39626 ft | 459 kts | 79° |
| 2026-05-09 17:03 | 52.90884 | -31.46112 | 39627 ft | 459 kts | 79° |
| 2026-05-09 17:05 | 52.93697 | -31.04048 | 39630 ft | 456 kts | 79° |
| 2026-05-09 17:05 | 52.94371 | -30.93614 | 39635 ft | 454 kts | 79° |
| 2026-05-09 17:06 | 52.95031 | -30.83267 | 39626 ft | 454 kts | 79° |
| 2026-05-09 17:06 | 52.95686 | -30.72861 | 39634 ft | 453 kts | 79° |
| 2026-05-09 17:07 | 52.96330 | -30.62458 | 39634 ft | 453 kts | 79° |
| 2026-05-09 17:07 | 52.96966 | -30.52070 | 39637 ft | 453 kts | 79° |
| 2026-05-09 17:08 | 52.97591 | -30.41680 | 39637 ft | 453 kts | 79° |
| 2026-05-09 17:08 | 52.98514 | -30.26069 | 39661 ft | 453 kts | 79° |
| 2026-05-09 17:09 | 52.99115 | -30.15673 | 39637 ft | 452 kts | 79° |
| 2026-05-09 17:09 | 52.99704 | -30.05366 | 39640 ft | 451 kts | 79° |
| 2026-05-09 17:10 | 53.00272 | -29.94978 | 39640 ft | 452 kts | 80° |
| 2026-05-09 17:10 | 53.00697 | -29.84546 | 39654 ft | 453 kts | 81° |
| 2026-05-09 17:11 | 53.01079 | -29.74169 | 39640 ft | 449 kts | 81° |
| 2026-05-09 17:11 | 53.01470 | -29.63827 | 39640 ft | 447 kts | 80° |
| 2026-05-09 17:12 | 53.01866 | -29.53513 | 39640 ft | 447 kts | 80° |
| 2026-05-09 17:12 | 53.02257 | -29.43225 | 39642 ft | 446 kts | 80° |
| 2026-05-09 17:13 | 53.02637 | -29.32928 | 39642 ft | 447 kts | 81° |
| 2026-05-09 17:13 | 53.03007 | -29.22637 | 39642 ft | 447 kts | 81° |
| 2026-05-09 17:14 | 53.03369 | -29.12324 | 39650 ft | 447 kts | 81° |
| 2026-05-09 17:14 | 53.03720 | -29.02024 | 39640 ft | 446 kts | 81° |
| 2026-05-09 17:15 | 53.04061 | -28.91802 | 39640 ft | 445 kts | 81° |
| 2026-05-09 17:15 | 53.04395 | -28.81516 | 39640 ft | 446 kts | 81° |
| 2026-05-09 17:17 | 53.05636 | -28.40501 | 39639 ft | 442 kts | 81° |
| 2026-05-09 17:18 | 53.05923 | -28.30364 | 39640 ft | 442 kts | 81° |
| 2026-05-09 17:18 | 53.06204 | -28.20098 | 39642 ft | 442 kts | 81° |
| 2026-05-09 17:19 | 53.06474 | -28.09893 | 39637 ft | 442 kts | 81° |
| 2026-05-09 17:19 | 53.06734 | -27.99733 | 39650 ft | 442 kts | 81° |
| 2026-05-09 17:20 | 53.06985 | -27.89535 | 39635 ft | 441 kts | 81° |
| 2026-05-09 17:20 | 53.07228 | -27.79337 | 39635 ft | 441 kts | 81° |
| 2026-05-09 17:21 | 53.07463 | -27.69147 | 39637 ft | 441 kts | 81° |
| 2026-05-09 17:21 | 53.07690 | -27.58930 | 39637 ft | 442 kts | 81° |
| 2026-05-09 17:22 | 53.07907 | -27.48714 | 39638 ft | 442 kts | 81° |
| 2026-05-09 17:22 | 53.08112 | -27.38597 | 39627 ft | 439 kts | 80° |
| 2026-05-09 17:23 | 53.08310 | -27.28434 | 39631 ft | 438 kts | 81° |
| 2026-05-09 17:23 | 53.08501 | -27.18292 | 39640 ft | 438 kts | 81° |
| 2026-05-09 17:25 | 53.09020 | -26.87928 | 39628 ft | 438 kts | 81° |
| 2026-05-09 17:25 | 53.09174 | -26.77849 | 39631 ft | 438 kts | 81° |
| 2026-05-09 17:26 | 53.09321 | -26.67717 | 39632 ft | 438 kts | 81° |
| 2026-05-09 17:26 | 53.09459 | -26.57550 | 39629 ft | 438 kts | 81° |
| 2026-05-09 17:27 | 53.09589 | -26.47399 | 39626 ft | 439 kts | 81° |
| 2026-05-09 17:27 | 53.09710 | -26.37255 | 39645 ft | 439 kts | 81° |
| 2026-05-09 17:28 | 53.09821 | -26.27169 | 39630 ft | 439 kts | 81° |
| 2026-05-09 17:28 | 53.09925 | -26.17031 | 39628 ft | 439 kts | 81° |
| 2026-05-09 17:29 | 53.10020 | -26.06888 | 39630 ft | 439 kts | 81° |
| 2026-05-09 17:29 | 53.10107 | -25.96731 | 39628 ft | 439 kts | 81° |
| 2026-05-09 17:30 | 53.10185 | -25.86592 | 39631 ft | 439 kts | 81° |
| 2026-05-09 17:30 | 53.10254 | -25.76431 | 39644 ft | 439 kts | 81° |
| 2026-05-09 17:31 | 53.10314 | -25.66279 | 39630 ft | 439 kts | 81° |
| 2026-05-09 17:32 | 53.10429 | -25.40891 | 39629 ft | 439 kts | 81° |
| 2026-05-09 17:33 | 53.10459 | -25.30781 | 39625 ft | 439 kts | 81° |
| 2026-05-09 17:33 | 53.10481 | -25.20615 | 39632 ft | 439 kts | 81° |
| 2026-05-09 17:34 | 53.10494 | -25.10453 | 39625 ft | 439 kts | 81° |
| 2026-05-09 17:35 | 53.10472 | -24.75199 | 39620 ft | 436 kts | 81° |
| 2026-05-09 17:36 | 53.10452 | -24.66808 | 39639 ft | 436 kts | 81° |
| 2026-05-09 17:36 | 53.10414 | -24.55060 | 39613 ft | 437 kts | 81° |
| 2026-05-09 17:37 | 53.10372 | -24.44939 | 39611 ft | 437 kts | 81° |
| 2026-05-09 17:37 | 53.10329 | -24.36518 | 39612 ft | 437 kts | 82° |
| 2026-05-09 17:38 | 53.10271 | -24.26408 | 39615 ft | 437 kts | 82° |
| 2026-05-09 17:39 | 53.10169 | -24.11385 | 39614 ft | 437 kts | 82° |
| 2026-05-09 17:39 | 53.10090 | -24.01240 | 39604 ft | 438 kts | 82° |
| 2026-05-09 17:40 | 53.10002 | -23.91110 | 39604 ft | 438 kts | 82° |
| 2026-05-09 17:40 | 53.09905 | -23.80972 | 39608 ft | 438 kts | 82° |
| 2026-05-09 17:41 | 53.09798 | -23.70845 | 39608 ft | 437 kts | 82° |
| 2026-05-09 17:41 | 53.09684 | -23.60726 | 39597 ft | 437 kts | 82° |
| 2026-05-09 17:42 | 53.09562 | -23.50591 | 39604 ft | 438 kts | 82° |
| 2026-05-09 17:42 | 53.09433 | -23.40535 | 39594 ft | 438 kts | 82° |
| 2026-05-09 17:43 | 53.09293 | -23.30322 | 39599 ft | 438 kts | 83° |
| 2026-05-09 17:43 | 53.09145 | -23.20262 | 39594 ft | 438 kts | 83° |
| 2026-05-09 17:44 | 53.08987 | -23.10088 | 39587 ft | 438 kts | 83° |
| 2026-05-09 17:44 | 53.08822 | -22.99954 | 39589 ft | 439 kts | 83° |
| 2026-05-09 17:45 | 53.08647 | -22.89803 | 39586 ft | 439 kts | 83° |
| 2026-05-09 17:45 | 53.08464 | -22.79644 | 39586 ft | 439 kts | 83° |
| 2026-05-09 17:46 | 53.08272 | -22.69543 | 39584 ft | 439 kts | 83° |
| 2026-05-09 17:46 | 53.08072 | -22.59384 | 39591 ft | 439 kts | 83° |
| 2026-05-09 17:47 | 53.07862 | -22.49216 | 39574 ft | 439 kts | 83° |
| 2026-05-09 17:47 | 53.07644 | -22.39058 | 39591 ft | 440 kts | 84° |
| 2026-05-09 17:48 | 53.07418 | -22.28858 | 39581 ft | 442 kts | 84° |
| 2026-05-09 17:48 | 53.07181 | -22.18645 | 39581 ft | 442 kts | 84° |
| 2026-05-09 17:49 | 53.06937 | -22.08525 | 39572 ft | 442 kts | 84° |
| 2026-05-09 17:49 | 53.06681 | -21.98277 | 39573 ft | 442 kts | 84° |
| 2026-05-09 17:50 | 53.06417 | -21.88033 | 39568 ft | 442 kts | 84° |
| 2026-05-09 17:50 | 53.06007 | -21.72670 | 39569 ft | 445 kts | 84° |
| 2026-05-09 17:51 | 53.05720 | -21.62403 | 39559 ft | 445 kts | 84° |
| 2026-05-09 17:51 | 53.05424 | -21.52127 | 39560 ft | 445 kts | 84° |
| 2026-05-09 17:52 | 53.05118 | -21.41833 | 39573 ft | 445 kts | 85° |
| 2026-05-09 17:52 | 53.04805 | -21.31540 | 39559 ft | 446 kts | 85° |
| 2026-05-09 17:53 | 53.04482 | -21.21242 | 39557 ft | 446 kts | 85° |
| 2026-05-09 17:53 | 53.04151 | -21.11010 | 39555 ft | 447 kts | 85° |
| 2026-05-09 17:54 | 53.03810 | -21.00694 | 39549 ft | 447 kts | 85° |
| 2026-05-09 17:54 | 53.03459 | -20.90374 | 39550 ft | 447 kts | 85° |
| 2026-05-09 17:55 | 53.03100 | -20.80060 | 39554 ft | 447 kts | 85° |
| 2026-05-09 17:55 | 53.02732 | -20.69734 | 39548 ft | 448 kts | 85° |
| 2026-05-09 17:56 | 53.02354 | -20.59373 | 39547 ft | 449 kts | 85° |
| 2026-05-09 17:57 | 53.01769 | -20.43882 | 39544 ft | 450 kts | 85° |
| 2026-05-09 17:57 | 53.01367 | -20.33528 | 39543 ft | 450 kts | 85° |
| 2026-05-09 17:58 | 53.00956 | -20.23172 | 39553 ft | 450 kts | 86° |
| 2026-05-09 17:58 | 53.00536 | -20.12768 | 39536 ft | 453 kts | 86° |
| 2026-05-09 17:59 | 53.00077 | -20.02296 | 39530 ft | 457 kts | 89° |
| 2026-05-09 17:59 | 52.98899 | -19.91880 | 39532 ft | 464 kts | 94° |
| 2026-05-09 18:00 | 52.97460 | -19.81428 | 39526 ft | 465 kts | 95° |
| 2026-05-09 18:00 | 52.95970 | -19.70971 | 39528 ft | 465 kts | 95° |
| 2026-05-09 18:01 | 52.94483 | -19.60528 | 39526 ft | 465 kts | 95° |
| 2026-05-09 18:01 | 52.92994 | -19.50062 | 39517 ft | 467 kts | 95° |
| 2026-05-09 18:02 | 52.91493 | -19.39571 | 39516 ft | 468 kts | 95° |
| 2026-05-09 18:02 | 52.89981 | -19.29076 | 39523 ft | 469 kts | 96° |
| 2026-05-09 18:03 | 52.88454 | -19.18553 | 39512 ft | 470 kts | 96° |
| 2026-05-09 18:03 | 52.86916 | -19.08027 | 39509 ft | 470 kts | 96° |
| 2026-05-09 18:04 | 52.85368 | -18.97512 | 39517 ft | 471 kts | 96° |
| 2026-05-09 18:04 | 52.83816 | -18.87022 | 39503 ft | 473 kts | 96° |
| 2026-05-09 18:05 | 52.82237 | -18.76435 | 39494 ft | 474 kts | 96° |
| 2026-05-09 18:05 | 52.80650 | -18.65864 | 39493 ft | 474 kts | 96° |
| 2026-05-09 18:06 | 52.79054 | -18.55304 | 39490 ft | 474 kts | 96° |
| 2026-05-09 18:06 | 52.77449 | -18.44744 | 39487 ft | 474 kts | 97° |
| 2026-05-09 18:07 | 52.75833 | -18.34181 | 39486 ft | 475 kts | 97° |
| 2026-05-09 18:07 | 52.74198 | -18.23562 | 39484 ft | 477 kts | 97° |
| 2026-05-09 18:08 | 52.72555 | -18.12972 | 39476 ft | 477 kts | 97° |
| 2026-05-09 18:08 | 52.70900 | -18.02371 | 39476 ft | 477 kts | 97° |
| 2026-05-09 18:09 | 52.69247 | -17.91856 | 39472 ft | 477 kts | 97° |
| 2026-05-09 18:09 | 52.67575 | -17.81276 | 39493 ft | 477 kts | 98° |
| 2026-05-09 18:10 | 52.66164 | -17.72400 | 39469 ft | 478 kts | 98° |
| 2026-05-09 18:10 | 52.64192 | -17.60079 | 39465 ft | 478 kts | 98° |
| 2026-05-09 18:11 | 52.62484 | -17.49489 | 39460 ft | 478 kts | 99° |
| 2026-05-09 18:11 | 52.60770 | -17.38922 | 39454 ft | 478 kts | 99° |
| 2026-05-09 18:12 | 52.59048 | -17.28369 | 39457 ft | 478 kts | 99° |
| 2026-05-09 18:12 | 52.57324 | -17.17869 | 39451 ft | 478 kts | 99° |
| 2026-05-09 18:13 | 52.55580 | -17.07312 | 39446 ft | 479 kts | 99° |
| 2026-05-09 18:13 | 52.53824 | -16.96750 | 39443 ft | 479 kts | 99° |
| 2026-05-09 18:14 | 52.52060 | -16.86199 | 39438 ft | 479 kts | 100° |
| 2026-05-09 18:14 | 52.50288 | -16.75676 | 39432 ft | 478 kts | 100° |
| 2026-05-09 18:15 | 52.48505 | -16.65145 | 39446 ft | 478 kts | 100° |
| 2026-05-09 18:15 | 52.46723 | -16.54679 | 39436 ft | 480 kts | 100° |
| 2026-05-09 18:16 | 52.44916 | -16.44129 | 39431 ft | 481 kts | 101° |
| 2026-05-09 18:16 | 52.43096 | -16.33579 | 39431 ft | 481 kts | 101° |
| 2026-05-09 18:17 | 52.41265 | -16.23019 | 39420 ft | 481 kts | 101° |
| 2026-05-09 18:17 | 52.39426 | -16.12483 | 39420 ft | 481 kts | 101° |
| 2026-05-09 18:18 | 52.37574 | -16.01924 | 39425 ft | 482 kts | 101° |
| 2026-05-09 18:18 | 52.35709 | -15.91352 | 39411 ft | 484 kts | 101° |
| 2026-05-09 18:19 | 52.33829 | -15.80769 | 39410 ft | 484 kts | 101° |
| 2026-05-09 18:19 | 52.31001 | -15.64965 | 39408 ft | 485 kts | 101° |
| 2026-05-09 18:20 | 52.29097 | -15.54400 | 39398 ft | 485 kts | 102° |
| 2026-05-09 18:20 | 52.27184 | -15.43848 | 39397 ft | 485 kts | 102° |
| 2026-05-09 18:21 | 52.25261 | -15.33297 | 39396 ft | 485 kts | 102° |
| 2026-05-09 18:21 | 52.23329 | -15.22755 | 39390 ft | 485 kts | 102° |
| 2026-05-09 18:22 | 52.21386 | -15.12215 | 39398 ft | 485 kts | 102° |
| 2026-05-09 18:22 | 52.19433 | -15.01685 | 39388 ft | 485 kts | 102° |
| 2026-05-09 18:23 | 52.17471 | -14.91162 | 39387 ft | 485 kts | 103° |
| 2026-05-09 18:23 | 52.15507 | -14.80688 | 39381 ft | 486 kts | 103° |
| 2026-05-09 18:24 | 52.13525 | -14.70182 | 39373 ft | 486 kts | 103° |
| 2026-05-09 18:25 | 52.10867 | -14.56179 | 39374 ft | 486 kts | 103° |
| 2026-05-09 18:25 | 52.08856 | -14.45652 | 39367 ft | 487 kts | 103° |
| 2026-05-09 18:26 | 52.06835 | -14.35136 | 39372 ft | 487 kts | 104° |
| 2026-05-09 18:26 | 52.04803 | -14.24613 | 39358 ft | 489 kts | 104° |
| 2026-05-09 18:27 | 52.02756 | -14.14083 | 39357 ft | 489 kts | 103° |
| 2026-05-09 18:27 | 52.00714 | -14.03626 | 39346 ft | 489 kts | 103° |
| 2026-05-09 18:28 | 51.98660 | -13.93102 | 39344 ft | 489 kts | 104° |
| 2026-05-09 18:28 | 51.96626 | -13.82567 | 39344 ft | 489 kts | 103° |
| 2026-05-09 18:29 | 51.94586 | -13.72036 | 39334 ft | 490 kts | 103° |
| 2026-05-09 18:29 | 51.92526 | -13.61485 | 39333 ft | 491 kts | 104° |
| 2026-05-09 18:30 | 51.90451 | -13.50926 | 39332 ft | 492 kts | 104° |
| 2026-05-09 18:30 | 51.88368 | -13.40401 | 39324 ft | 491 kts | 104° |
| 2026-05-09 18:31 | 51.86271 | -13.29855 | 39322 ft | 492 kts | 103° |
| 2026-05-09 18:31 | 51.84180 | -13.19387 | 39320 ft | 492 kts | 105° |
| 2026-05-09 18:32 | 51.82065 | -13.08862 | 39309 ft | 493 kts | 104° |
| 2026-05-09 18:32 | 51.79936 | -12.98326 | 39308 ft | 493 kts | 104° |
| 2026-05-09 18:33 | 51.77797 | -12.87804 | 39308 ft | 491 kts | 104° |
| 2026-05-09 18:33 | 51.75670 | -12.77389 | 39300 ft | 491 kts | 105° |
| 2026-05-09 18:34 | 51.73521 | -12.66915 | 39299 ft | 491 kts | 106° |
| 2026-05-09 18:34 | 51.71357 | -12.56433 | 39291 ft | 493 kts | 104° |
| 2026-05-09 18:35 | 51.69181 | -12.45935 | 39287 ft | 493 kts | 105° |
| 2026-05-09 18:35 | 51.67008 | -12.35525 | 39285 ft | 493 kts | 104° |
| 2026-05-09 18:36 | 51.64816 | -12.25065 | 39282 ft | 493 kts | 106° |
| 2026-05-09 18:36 | 51.62609 | -12.14596 | 39293 ft | 494 kts | 107° |
| 2026-05-09 18:37 | 51.60393 | -12.04134 | 39263 ft | 495 kts | 107° |
| 2026-05-09 18:37 | 51.58161 | -11.93647 | 39265 ft | 495 kts | 105° |
| 2026-05-09 18:38 | 51.55923 | -11.83193 | 39259 ft | 495 kts | 107° |
| 2026-05-09 18:38 | 51.53673 | -11.72731 | 39254 ft | 495 kts | 107° |
| 2026-05-09 18:40 | 51.44590 | -11.31041 | 39233 ft | 493 kts | 107° |
| 2026-05-09 18:41 | 51.42304 | -11.20684 | 39233 ft | 493 kts | 108° |
| 2026-05-09 18:41 | 51.40024 | -11.10404 | 39225 ft | 493 kts | 108° |
| 2026-05-09 18:42 | 51.37723 | -11.00075 | 39220 ft | 492 kts | 108° |
| 2026-05-09 18:42 | 51.35411 | -10.89748 | 39214 ft | 492 kts | 108° |
| 2026-05-09 18:43 | 51.33090 | -10.79435 | 39215 ft | 492 kts | 108° |
| 2026-05-09 18:43 | 51.30763 | -10.69152 | 39207 ft | 492 kts | 108° |
| 2026-05-09 18:44 | 51.28437 | -10.58913 | 39204 ft | 490 kts | 109° |
| 2026-05-09 18:44 | 51.26103 | -10.48695 | 39202 ft | 489 kts | 109° |
| 2026-05-09 18:45 | 51.23778 | -10.38558 | 39193 ft | 489 kts | 109° |
| 2026-05-09 18:45 | 51.21429 | -10.28374 | 39190 ft | 489 kts | 109° |
| 2026-05-09 18:46 | 51.19070 | -10.18191 | 39191 ft | 489 kts | 109° |
| 2026-05-09 18:46 | 51.16704 | -10.08024 | 39185 ft | 489 kts | 109° |
| 2026-05-09 18:47 | 51.14326 | -9.97856 | 39186 ft | 489 kts | 109° |
| 2026-05-09 18:47 | 51.11943 | -9.87715 | 39178 ft | 488 kts | 109° |
| 2026-05-09 18:48 | 51.09567 | -9.77651 | 39178 ft | 488 kts | 109° |
| 2026-05-09 18:48 | 51.07172 | -9.67555 | 39180 ft | 488 kts | 109° |
| 2026-05-09 18:49 | 51.04764 | -9.57451 | 39178 ft | 488 kts | 109° |
| 2026-05-09 18:49 | 51.02352 | -9.47372 | 39169 ft | 488 kts | 110° |
| 2026-05-09 18:50 | 50.99919 | -9.37257 | 39169 ft | 490 kts | 110° |
| 2026-05-09 18:50 | 50.97494 | -9.27218 | 39168 ft | 491 kts | 110° |
| 2026-05-09 18:51 | 50.95038 | -9.17106 | 39164 ft | 492 kts | 110° |
| 2026-05-09 18:51 | 50.92569 | -9.06980 | 39164 ft | 492 kts | 110° |
| 2026-05-09 18:52 | 50.90091 | -8.96865 | 39168 ft | 492 kts | 110° |
| 2026-05-09 18:52 | 50.87579 | -8.86658 | 39166 ft | 493 kts | 110° |
| 2026-05-09 18:53 | 50.85122 | -8.76722 | 39166 ft | 494 kts | 111° |
| 2026-05-09 18:53 | 50.82599 | -8.66561 | 39153 ft | 494 kts | 110° |
| 2026-05-09 18:54 | 50.80072 | -8.56435 | 39151 ft | 494 kts | 111° |
| 2026-05-09 18:54 | 50.77542 | -8.46341 | 39155 ft | 494 kts | 111° |
| 2026-05-09 18:55 | 50.75002 | -8.36251 | 39148 ft | 496 kts | 111° |
| 2026-05-09 18:55 | 50.72442 | -8.26129 | 39150 ft | 496 kts | 111° |
| 2026-05-09 18:56 | 50.69874 | -8.16022 | 39141 ft | 496 kts | 111° |
| 2026-05-09 18:56 | 50.67312 | -8.05981 | 39141 ft | 496 kts | 111° |
| 2026-05-09 18:57 | 50.64718 | -7.95899 | 39136 ft | 496 kts | 112° |
| 2026-05-09 18:57 | 50.62022 | -7.85904 | 39136 ft | 496 kts | 113° |
| 2026-05-09 18:58 | 50.59285 | -7.75920 | 39127 ft | 496 kts | 113° |
| 2026-05-09 18:58 | 50.56558 | -7.65961 | 39125 ft | 495 kts | 113° |
| 2026-05-09 18:59 | 50.53832 | -7.56001 | 39121 ft | 495 kts | 113° |
| 2026-05-09 18:59 | 50.51125 | -7.46142 | 39121 ft | 495 kts | 114° |
| 2026-05-09 19:00 | 50.48390 | -7.36224 | 39122 ft | 496 kts | 114° |
| 2026-05-09 19:00 | 50.44261 | -7.21329 | 39113 ft | 497 kts | 114° |
| 2026-05-09 19:01 | 50.41496 | -7.11409 | 39110 ft | 496 kts | 114° |
| 2026-05-09 19:01 | 50.38715 | -7.01474 | 39100 ft | 497 kts | 114° |
| 2026-05-09 19:02 | 50.35929 | -6.91564 | 39100 ft | 497 kts | 115° |
| 2026-05-09 19:02 | 50.33134 | -6.81661 | 39103 ft | 498 kts | 115° |
| 2026-05-09 19:03 | 50.30324 | -6.71751 | 39090 ft | 498 kts | 115° |
| 2026-05-09 19:03 | 50.27522 | -6.61908 | 39092 ft | 499 kts | 115° |
| 2026-05-09 19:04 | 50.24695 | -6.52017 | 39093 ft | 498 kts | 115° |
| 2026-05-09 19:04 | 50.21866 | -6.42156 | 39080 ft | 497 kts | 115° |
| 2026-05-09 19:05 | 50.19488 | -6.33904 | 39086 ft | 496 kts | 116° |
| 2026-05-09 19:05 | 50.16195 | -6.22525 | 39078 ft | 495 kts | 116° |
| 2026-05-09 19:06 | 50.13350 | -6.12733 | 39074 ft | 495 kts | 116° |
| 2026-05-09 19:06 | 50.10497 | -6.02953 | 39075 ft | 495 kts | 116° |
| 2026-05-09 19:07 | 50.07655 | -5.93252 | 39064 ft | 495 kts | 117° |
| 2026-05-09 19:07 | 50.04793 | -5.83519 | 39068 ft | 495 kts | 116° |
| 2026-05-09 19:08 | 50.01953 | -5.73902 | 39079 ft | 481 kts | 116° |
| 2026-05-09 19:08 | 49.99171 | -5.64512 | 39068 ft | 477 kts | 117° |
| 2026-05-09 19:09 | 49.96377 | -5.55133 | 39048 ft | 477 kts | 116° |
| 2026-05-09 19:09 | 49.93581 | -5.45773 | 39060 ft | 477 kts | 117° |
| 2026-05-09 19:10 | 49.90775 | -5.36422 | 39063 ft | 477 kts | 116° |
| 2026-05-09 19:10 | 49.87969 | -5.27100 | 39048 ft | 477 kts | 116° |
| 2026-05-09 19:11 | 49.85153 | -5.17784 | 39034 ft | 477 kts | 116° |
| 2026-05-09 19:11 | 49.82340 | -5.08512 | 39048 ft | 480 kts | 117° |
| 2026-05-09 19:12 | 49.79488 | -4.99148 | 39048 ft | 480 kts | 116° |
| 2026-05-09 19:12 | 49.76633 | -4.89809 | 39044 ft | 480 kts | 117° |
| 2026-05-09 19:13 | 49.73766 | -4.80465 | 39048 ft | 480 kts | 116° |
| 2026-05-09 19:13 | 49.71380 | -4.72716 | 39049 ft | 480 kts | 117° |
| 2026-05-09 19:14 | 49.68501 | -4.63402 | 39044 ft | 481 kts | 116° |
| 2026-05-09 19:14 | 49.65145 | -4.52585 | 39043 ft | 480 kts | 117° |
| 2026-05-09 19:15 | 49.62720 | -4.44797 | 39040 ft | 481 kts | 117° |
| 2026-05-09 19:15 | 49.59848 | -4.35458 | 39034 ft | 482 kts | 114° |
| 2026-05-09 19:16 | 49.57893 | -4.25553 | 39035 ft | 484 kts | 105° |
| 2026-05-09 19:16 | 49.56336 | -4.15523 | 39032 ft | 485 kts | 104° |
| 2026-05-09 19:17 | 49.54819 | -4.05398 | 39023 ft | 485 kts | 104° |
| 2026-05-09 19:17 | 49.53285 | -3.95288 | 39026 ft | 485 kts | 105° |
| 2026-05-09 19:18 | 49.51726 | -3.85185 | 39030 ft | 485 kts | 105° |
| 2026-05-09 19:18 | 49.50155 | -3.75103 | 39031 ft | 485 kts | 105° |
| 2026-05-09 19:19 | 49.48573 | -3.65018 | 39027 ft | 485 kts | 105° |
| 2026-05-09 19:19 | 49.46985 | -3.54948 | 39017 ft | 485 kts | 105° |
| 2026-05-09 19:20 | 49.45392 | -3.44902 | 39021 ft | 488 kts | 106° |
| 2026-05-09 19:20 | 49.43771 | -3.34751 | 39019 ft | 489 kts | 106° |
| 2026-05-09 19:21 | 49.42145 | -3.24624 | 39023 ft | 489 kts | 106° |
| 2026-05-09 19:21 | 49.40510 | -3.14499 | 39020 ft | 488 kts | 106° |
| 2026-05-09 19:22 | 49.38868 | -3.04397 | 39012 ft | 489 kts | 106° |
| 2026-05-09 19:22 | 49.37212 | -2.94272 | 39015 ft | 489 kts | 107° |
| 2026-05-09 19:23 | 49.35546 | -2.84147 | 39015 ft | 489 kts | 107° |
| 2026-05-09 19:23 | 49.33874 | -2.74040 | 38997 ft | 489 kts | 107° |
| 2026-05-09 19:24 | 49.32192 | -2.63937 | 38989 ft | 489 kts | 107° |
| 2026-05-09 19:24 | 49.30507 | -2.53868 | 38996 ft | 486 kts | 107° |
| 2026-05-09 19:25 | 49.28816 | -2.43831 | 38997 ft | 486 kts | 107° |
| 2026-05-09 19:25 | 49.27130 | -2.33878 | 39001 ft | 485 kts | 108° |
| 2026-05-09 19:26 | 49.25431 | -2.23904 | 39003 ft | 483 kts | 108° |
| 2026-05-09 19:26 | 49.23731 | -2.13982 | 39001 ft | 481 kts | 108° |
| 2026-05-09 19:27 | 49.22027 | -2.04097 | 39005 ft | 480 kts | 108° |
| 2026-05-09 19:27 | 49.20440 | -1.94163 | 38974 ft | 481 kts | 107° |
| 2026-05-09 19:28 | 49.18949 | -1.84191 | 39002 ft | 481 kts | 107° |
| 2026-05-09 19:28 | 49.17439 | -1.74225 | 38992 ft | 481 kts | 107° |
| 2026-05-09 19:29 | 49.15910 | -1.64348 | 38988 ft | 480 kts | 107° |
| 2026-05-09 19:29 | 49.14355 | -1.54430 | 38989 ft | 480 kts | 107° |
| 2026-05-09 19:30 | 49.12791 | -1.44515 | 39000 ft | 480 kts | 108° |
| 2026-05-09 19:30 | 49.11219 | -1.34603 | 38981 ft | 480 kts | 108° |
| 2026-05-09 19:31 | 49.09640 | -1.24701 | 38984 ft | 480 kts | 108° |
| 2026-05-09 19:31 | 49.08059 | -1.14850 | 38979 ft | 480 kts | 108° |
| 2026-05-09 19:32 | 49.06459 | -1.04929 | 38970 ft | 479 kts | 108° |
| 2026-05-09 19:32 | 49.04870 | -0.95143 | 38971 ft | 478 kts | 108° |
| 2026-05-09 19:33 | 49.03265 | -0.85311 | 38960 ft | 478 kts | 108° |
| 2026-05-09 19:33 | 49.01653 | -0.75498 | 38965 ft | 477 kts | 108° |
| 2026-05-09 19:34 | 49.00031 | -0.65684 | 38970 ft | 477 kts | 108° |
| 2026-05-09 19:34 | 48.98403 | -0.55885 | 38964 ft | 477 kts | 108° |
| 2026-05-09 19:35 | 48.96768 | -0.46104 | 38967 ft | 477 kts | 108° |
| 2026-05-09 19:35 | 48.95118 | -0.36287 | 38963 ft | 477 kts | 108° |
| 2026-05-09 19:36 | 48.93478 | -0.26583 | 38961 ft | 477 kts | 108° |
| 2026-05-09 19:36 | 48.91815 | -0.16799 | 38960 ft | 477 kts | 108° |
| 2026-05-09 19:37 | 48.90143 | -0.07020 | 38961 ft | 477 kts | 108° |
| 2026-05-09 19:37 | 48.88467 | 0.02734 | 38950 ft | 477 kts | 109° |
| 2026-05-09 19:38 | 48.86781 | 0.12487 | 38961 ft | 477 kts | 109° |
| 2026-05-09 19:38 | 48.85100 | 0.22158 | 38956 ft | 477 kts | 109° |
| 2026-05-09 19:39 | 48.83399 | 0.31894 | 38957 ft | 477 kts | 109° |
| 2026-05-09 19:39 | 48.81690 | 0.41616 | 38957 ft | 476 kts | 109° |
| 2026-05-09 19:40 | 48.79979 | 0.51299 | 38955 ft | 476 kts | 109° |
| 2026-05-09 19:40 | 48.78254 | 0.61007 | 38954 ft | 475 kts | 109° |
| 2026-05-09 19:41 | 48.76535 | 0.70688 | 38956 ft | 476 kts | 108° |
| 2026-05-09 19:41 | 48.75202 | 0.80545 | 38957 ft | 478 kts | 104° |
| 2026-05-09 19:42 | 48.74055 | 0.90471 | 38951 ft | 478 kts | 104° |
| 2026-05-09 19:42 | 48.72850 | 1.00376 | 38955 ft | 477 kts | 105° |
| 2026-05-09 19:43 | 48.71595 | 1.10175 | 38954 ft | 477 kts | 105° |
| 2026-05-09 19:43 | 48.70307 | 1.20021 | 38952 ft | 477 kts | 105° |
| 2026-05-09 19:44 | 48.69011 | 1.29863 | 38949 ft | 477 kts | 105° |
| 2026-05-09 19:44 | 48.67709 | 1.39700 | 38950 ft | 476 kts | 105° |
| 2026-05-09 19:45 | 48.66400 | 1.49534 | 38949 ft | 476 kts | 105° |
| 2026-05-09 19:45 | 48.65085 | 1.59345 | 38947 ft | 476 kts | 105° |
| 2026-05-09 19:46 | 48.63758 | 1.69173 | 38942 ft | 476 kts | 105° |
| 2026-05-09 19:46 | 48.62422 | 1.78984 | 38935 ft | 483 kts | 105° |
| 2026-05-09 19:47 | 48.61047 | 1.89017 | 38953 ft | 491 kts | 105° |
| 2026-05-09 19:47 | 48.59655 | 1.99128 | 38958 ft | 491 kts | 105° |
| 2026-05-09 19:48 | 48.58258 | 2.09219 | 38957 ft | 490 kts | 106° |
| 2026-05-09 19:48 | 48.56985 | 2.19344 | 38951 ft | 493 kts | 99° |
| 2026-05-09 19:49 | 48.56537 | 2.29705 | 38958 ft | 495 kts | 96° |
| 2026-05-09 19:49 | 48.56250 | 2.40048 | 38959 ft | 495 kts | 96° |
| 2026-05-09 19:50 | 48.55974 | 2.50360 | 38938 ft | 495 kts | 96° |
| 2026-05-09 19:50 | 48.55648 | 2.60825 | 38918 ft | 494 kts | 98° |
| 2026-05-09 19:51 | 48.54422 | 2.70872 | 38939 ft | 488 kts | 108° |
| 2026-05-09 19:51 | 48.52790 | 2.80805 | 38940 ft | 487 kts | 108° |
| 2026-05-09 19:52 | 48.51129 | 2.90727 | 38944 ft | 488 kts | 108° |
| 2026-05-09 19:52 | 48.49456 | 3.00641 | 38947 ft | 488 kts | 108° |
| 2026-05-09 19:53 | 48.47775 | 3.10545 | 38953 ft | 487 kts | 108° |
| 2026-05-09 19:53 | 48.46085 | 3.20438 | 38948 ft | 487 kts | 108° |
| 2026-05-09 19:54 | 48.44390 | 3.30309 | 38956 ft | 486 kts | 108° |
| 2026-05-09 19:54 | 48.42697 | 3.40110 | 38957 ft | 486 kts | 109° |
| 2026-05-09 19:55 | 48.40986 | 3.49959 | 38954 ft | 487 kts | 109° |
| 2026-05-09 19:56 | 48.38400 | 3.64744 | 38963 ft | 487 kts | 109° |
| 2026-05-09 19:56 | 48.36667 | 3.74584 | 38960 ft | 486 kts | 108° |
| 2026-05-09 19:57 | 48.34926 | 3.84415 | 38940 ft | 486 kts | 109° |
| 2026-05-09 19:57 | 48.33178 | 3.94230 | 38938 ft | 486 kts | 109° |
| 2026-05-09 19:58 | 48.31434 | 4.03974 | 38939 ft | 486 kts | 109° |
| 2026-05-09 19:58 | 48.29669 | 4.13779 | 38938 ft | 486 kts | 109° |
| 2026-05-09 19:59 | 48.27896 | 4.23572 | 38943 ft | 486 kts | 109° |
| 2026-05-09 19:59 | 48.26116 | 4.33359 | 38947 ft | 486 kts | 109° |
| 2026-05-09 20:00 | 48.24326 | 4.43142 | 38962 ft | 487 kts | 109° |
| 2026-05-09 20:00 | 48.22522 | 4.52944 | 38965 ft | 487 kts | 109° |
| 2026-05-09 20:01 | 48.20715 | 4.62725 | 38971 ft | 487 kts | 109° |
| 2026-05-09 20:01 | 48.18895 | 4.72514 | 38959 ft | 487 kts | 109° |
| 2026-05-09 20:02 | 48.17378 | 4.80635 | 38970 ft | 488 kts | 109° |
| 2026-05-09 20:02 | 48.15535 | 4.90456 | 38973 ft | 489 kts | 109° |
| 2026-05-09 20:03 | 48.12761 | 5.05145 | 38975 ft | 489 kts | 110° |
| 2026-05-09 20:03 | 48.10910 | 5.14879 | 38955 ft | 489 kts | 109° |
| 2026-05-09 20:04 | 48.09034 | 5.24688 | 38979 ft | 491 kts | 109° |
| 2026-05-09 20:04 | 48.07145 | 5.34525 | 38977 ft | 492 kts | 109° |